Time;durP1;ratioP1;P1;durP2;ratioP2;P2;SDS_P1;SDS_P2;PMS_P1;PMS_P2;Temp;Humidity;BMP_temperature;BMP_pressure;BME280_temperature;BME280_humidity;BME280_pressure;Samples;Min_cycle;Max_cycle;Signal;HPM_P1;HPM_P2
2023/07/23 00:01:13;;;;;;;15.27;9.82;;;14.30;99.90;;;;;;7366927;19;20526;-56
2023/07/23 00:03:39;;;;;;;13.93;10.55;;;14.30;99.90;;;;;;7370137;19;20355;-57
2023/07/23 00:06:06;;;;;;;14.57;9.82;;;14.30;99.90;;;;;;7366918;19;20054;-56
2023/07/23 00:08:33;;;;;;;19.95;11.27;;;14.20;99.90;;;;;;7367324;19;20085;-56
2023/07/23 00:11:00;;;;;;;18.30;10.10;;;14.30;99.90;;;;;;7370257;19;20492;-56
2023/07/23 00:13:26;;;;;;;14.07;9.73;;;14.20;99.90;;;;;;7368483;19;20549;-56
2023/07/23 00:15:52;;;;;;;14.13;10.02;;;14.30;99.90;;;;;;7370498;19;20022;-56
2023/07/23 00:18:19;;;;;;;12.93;9.95;;;14.30;99.90;;;;;;7366645;19;20022;-66
2023/07/23 00:20:46;;;;;;;12.55;10.18;;;14.30;99.90;;;;;;7370141;19;20029;-66
2023/07/23 00:23:12;;;;;;;15.95;10.93;;;14.30;99.90;;;;;;7364579;19;20041;-66
2023/07/23 00:25:38;;;;;;;13.35;10.32;;;14.20;99.90;;;;;;7366043;19;20006;-66
2023/07/23 00:28:06;;;;;;;17.48;11.60;;;14.20;99.90;;;;;;7364487;19;20022;-67
2023/07/23 00:30:32;;;;;;;16.67;10.77;;;14.20;99.90;;;;;;7367770;19;20025;-66
2023/07/23 00:33:01;;;;;;;17.45;12.65;;;14.20;99.90;;;;;;7367072;19;20025;-56
2023/07/23 00:35:29;;;;;;;18.30;11.50;;;14.20;99.90;;;;;;7367984;19;20018;-56
2023/07/23 00:37:56;;;;;;;17.10;12.15;;;14.20;99.90;;;;;;7366635;19;20022;-64
2023/07/23 00:40:22;;;;;;;15.70;11.43;;;14.20;99.90;;;;;;7369966;19;20014;-65
2023/07/23 00:42:48;;;;;;;15.30;11.27;;;14.20;99.90;;;;;;7369239;19;20497;-58
2023/07/23 00:45:15;;;;;;;15.88;10.73;;;14.20;99.90;;;;;;7365987;19;20632;-56
2023/07/23 00:47:42;;;;;;;14.80;11.63;;;14.20;99.90;;;;;;7364981;19;20493;-56
2023/07/23 00:50:10;;;;;;;16.05;11.90;;;14.20;99.90;;;;;;7364371;19;20033;-56
2023/07/23 00:52:36;;;;;;;16.77;11.88;;;14.20;99.90;;;;;;7364364;19;20037;-56
2023/07/23 00:55:03;;;;;;;15.43;11.13;;;14.20;99.90;;;;;;7365109;19;20105;-57
2023/07/23 00:57:31;;;;;;;19.42;11.80;;;14.20;99.90;;;;;;7364267;19;20509;-57
2023/07/23 00:59:58;;;;;;;19.30;12.48;;;14.20;99.90;;;;;;7366992;19;20041;-57
2023/07/23 01:02:27;;;;;;;17.10;11.45;;;14.20;99.90;;;;;;7366130;19;20034;-57
2023/07/23 01:04:55;;;;;;;16.88;12.23;;;14.20;99.90;;;;;;7366250;19;20022;-57
2023/07/23 01:07:23;;;;;;;17.80;13.05;;;14.20;99.90;;;;;;7366495;19;20023;-57
2023/07/23 01:09:51;;;;;;;18.90;13.98;;;14.20;99.90;;;;;;7370039;19;20614;-57
2023/07/23 01:12:19;;;;;;;21.85;12.77;;;14.20;99.90;;;;;;7367968;19;20022;-66
2023/07/23 01:14:46;;;;;;;17.83;13.20;;;14.20;99.90;;;;;;7366360;19;20014;-66
2023/07/23 01:17:15;;;;;;;19.23;13.05;;;14.20;99.90;;;;;;7366602;19;20650;-66
2023/07/23 01:19:41;;;;;;;20.65;13.57;;;14.20;99.90;;;;;;7364879;19;20386;-67
2023/07/23 01:22:07;;;;;;;20.00;13.50;;;14.20;99.90;;;;;;7367515;19;20021;-67
2023/07/23 01:24:35;;;;;;;19.67;13.15;;;14.10;99.90;;;;;;7364836;19;20058;-66
2023/07/23 01:27:02;;;;;;;21.20;15.10;;;14.10;99.90;;;;;;7366838;19;20018;-56
2023/07/23 01:29:29;;;;;;;20.08;13.80;;;14.20;99.90;;;;;;7361957;19;20456;-57
2023/07/23 01:31:56;;;;;;;21.67;14.55;;;14.10;99.90;;;;;;7366159;19;20025;-57
2023/07/23 01:34:24;;;;;;;20.77;14.73;;;14.10;99.90;;;;;;7367067;19;20606;-58
2023/07/23 01:36:52;;;;;;;25.60;14.85;;;14.10;99.90;;;;;;7371225;19;20520;-65
2023/07/23 01:39:18;;;;;;;28.00;16.27;;;14.10;99.90;;;;;;7373970;19;20023;-68
2023/07/23 01:41:45;;;;;;;22.30;14.27;;;14.10;99.90;;;;;;7370887;19;20022;-66
2023/07/23 01:44:12;;;;;;;23.75;14.32;;;14.10;99.90;;;;;;7375415;19;20378;-66
2023/07/23 01:46:38;;;;;;;18.98;14.38;;;14.10;99.90;;;;;;7367425;19;20828;-66
2023/07/23 01:49:04;;;;;;;23.77;15.70;;;14.10;99.90;;;;;;7370718;19;20049;-67
2023/07/23 01:51:30;;;;;;;34.67;14.73;;;14.10;99.90;;;;;;7367785;19;20770;-67
2023/07/23 01:53:57;;;;;;;23.65;15.35;;;14.10;99.90;;;;;;7373509;19;20023;-67
2023/07/23 01:56:23;;;;;;;24.38;15.30;;;14.10;99.90;;;;;;7373309;19;20432;-67
2023/07/23 01:58:50;;;;;;;24.30;15.10;;;14.10;99.90;;;;;;7369845;19;20445;-67
2023/07/23 02:01:16;;;;;;;22.10;14.73;;;14.10;99.90;;;;;;7368706;19;20023;-57
2023/07/23 02:03:42;;;;;;;25.55;15.93;;;14.10;99.90;;;;;;7371870;19;20017;-57
2023/07/23 02:06:08;;;;;;;25.45;15.32;;;14.20;99.90;;;;;;7375429;19;20464;-57
2023/07/23 02:08:35;;;;;;;27.08;16.02;;;14.10;99.90;;;;;;7372347;19;20018;-57
2023/07/23 02:11:03;;;;;;;27.50;15.85;;;14.10;99.90;;;;;;7371060;19;20025;-57
2023/07/23 02:13:29;;;;;;;22.70;15.00;;;14.10;99.90;;;;;;7368135;19;20022;-56
2023/07/23 02:15:56;;;;;;;24.70;15.18;;;14.10;99.90;;;;;;7369564;19;20022;-57
2023/07/23 02:18:23;;;;;;;28.55;16.35;;;14.10;99.90;;;;;;7370497;19;20057;-65
2023/07/23 02:20:49;;;;;;;27.42;16.63;;;14.10;99.90;;;;;;7370420;19;20041;-66
2023/07/23 02:23:16;;;;;;;22.23;14.65;;;14.10;99.90;;;;;;7368191;19;20497;-66
2023/07/23 02:25:43;;;;;;;26.52;14.60;;;14.10;99.90;;;;;;7373024;19;20021;-66
2023/07/23 02:28:10;;;;;;;27.45;16.05;;;14.10;99.90;;;;;;7372043;19;20042;-66
2023/07/23 02:30:36;;;;;;;21.17;15.05;;;14.10;99.90;;;;;;7365806;19;20490;-66
2023/07/23 02:33:03;;;;;;;25.30;15.50;;;14.10;99.90;;;;;;7371526;19;20018;-66
2023/07/23 02:35:38;;;;;;;23.67;15.65;;;14.10;99.90;;;;;;7369291;19;20046;-66
2023/07/23 02:38:04;;;;;;;25.73;15.60;;;14.10;99.90;;;;;;7372162;19;20408;-66
2023/07/23 02:40:33;;;;;;;28.77;16.58;;;14.10;99.90;;;;;;7368930;19;20029;-66
2023/07/23 02:43:00;;;;;;;25.42;15.43;;;14.10;99.90;;;;;;7368087;19;20115;-66
2023/07/23 02:45:28;;;;;;;23.75;15.63;;;14.10;99.90;;;;;;7372217;19;20022;-66
2023/07/23 02:47:54;;;;;;;26.65;16.77;;;14.10;99.90;;;;;;7371995;19;20102;-66
2023/07/23 02:50:20;;;;;;;22.73;16.38;;;14.10;99.90;;;;;;7365591;19;20034;-66
2023/07/23 02:52:47;;;;;;;27.27;16.85;;;14.10;99.90;;;;;;7367183;19;20082;-66
2023/07/23 02:55:13;;;;;;;21.30;16.80;;;14.10;99.90;;;;;;7369227;19;20018;-67
2023/07/23 02:57:40;;;;;;;23.40;16.05;;;14.10;99.90;;;;;;7369177;19;20687;-66
2023/07/23 03:00:10;;;;;;;24.50;16.95;;;14.10;99.90;;;;;;7371965;19;20018;-67
2023/07/23 03:02:36;;;;;;;22.48;16.48;;;14.10;99.90;;;;;;7370992;19;20604;-57
2023/07/23 03:05:03;;;;;;;25.27;15.93;;;14.10;99.90;;;;;;7367540;19;20030;-57
2023/07/23 03:07:34;;;;;;;21.45;15.75;;;14.10;99.90;;;;;;7368327;19;20015;-57
2023/07/23 03:10:03;;;;;;;19.07;14.83;;;14.10;99.90;;;;;;7368808;19;20014;-56
2023/07/23 03:12:34;;;;;;;25.63;16.48;;;14.10;99.90;;;;;;7371267;19;20035;-56
2023/07/23 03:15:00;;;;;;;22.17;16.20;;;14.10;99.90;;;;;;7372210;19;20029;-56
2023/07/23 03:17:26;;;;;;;21.42;16.17;;;14.10;99.90;;;;;;7372243;19;20015;-56
2023/07/23 03:19:53;;;;;;;19.63;15.45;;;14.10;99.90;;;;;;7371328;19;20485;-57
2023/07/23 03:22:19;;;;;;;20.75;15.90;;;14.10;99.90;;;;;;7372043;19;20026;-56
2023/07/23 03:24:46;;;;;;;23.60;15.88;;;14.10;99.90;;;;;;7371554;19;20082;-56
2023/07/23 03:27:13;;;;;;;22.00;15.35;;;14.10;99.90;;;;;;7366927;19;20046;-56
2023/07/23 03:29:39;;;;;;;22.40;15.60;;;14.10;99.90;;;;;;7367204;19;20078;-57
2023/07/23 03:32:06;;;;;;;20.17;14.82;;;14.10;99.90;;;;;;7372700;19;20022;-57
2023/07/23 03:34:32;;;;;;;18.83;15.13;;;14.10;99.90;;;;;;7369974;19;20010;-57
2023/07/23 03:36:58;;;;;;;19.45;15.10;;;14.10;99.90;;;;;;7367541;19;20069;-57
2023/07/23 03:39:25;;;;;;;20.70;15.52;;;14.10;99.90;;;;;;7369951;19;20442;-59
2023/07/23 03:41:52;;;;;;;20.70;13.50;;;14.10;99.90;;;;;;7367926;19;20025;-57
2023/07/23 03:44:18;;;;;;;23.48;15.05;;;14.10;99.90;;;;;;7368184;19;20509;-57
2023/07/23 03:47:00;;;;;;;18.60;14.93;;;14.10;99.90;;;;;;7370757;19;20022;-56
2023/07/23 03:49:26;;;;;;;19.83;15.50;;;14.10;99.90;;;;;;7366419;19;20035;-57
2023/07/23 03:51:52;;;;;;;22.27;14.98;;;14.10;99.90;;;;;;7364881;19;20014;-57
2023/07/23 03:54:18;;;;;;;21.38;15.25;;;14.20;99.90;;;;;;7361852;19;20019;-67
2023/07/23 03:56:45;;;;;;;20.73;15.52;;;14.20;99.90;;;;;;7366768;19;20010;-66
2023/07/23 03:59:12;;;;;;;20.30;15.25;;;14.10;99.90;;;;;;7366208;19;20062;-67
2023/07/23 04:01:38;;;;;;;21.17;14.52;;;14.20;99.90;;;;;;7369582;19;20035;-66
2023/07/23 04:04:04;;;;;;;22.30;15.30;;;14.20;99.90;;;;;;7364911;19;20018;-65
2023/07/23 04:06:31;;;;;;;26.50;16.85;;;14.20;99.90;;;;;;7366025;19;20014;-66
2023/07/23 04:08:57;;;;;;;22.08;15.65;;;14.20;99.90;;;;;;7371755;19;20030;-67
2023/07/23 04:11:23;;;;;;;18.80;15.27;;;14.20;99.90;;;;;;7363415;19;21524;-66
2023/07/23 04:13:50;;;;;;;22.65;15.93;;;14.20;99.90;;;;;;7372560;19;20022;-66
2023/07/23 04:16:17;;;;;;;19.58;15.30;;;14.20;99.90;;;;;;7363128;19;20018;-67
2023/07/23 04:18:50;;;;;;;22.65;15.27;;;14.30;99.90;;;;;;7369466;19;20015;-67
2023/07/23 04:21:18;;;;;;;21.60;15.90;;;14.20;99.90;;;;;;7364107;19;20030;-67
2023/07/23 04:23:53;;;;;;;26.75;16.95;;;14.30;99.90;;;;;;7369305;19;20029;-66
2023/07/23 04:26:21;;;;;;;21.10;15.85;;;14.30;99.90;;;;;;7367945;19;20584;-67
2023/07/23 04:28:49;;;;;;;21.40;16.23;;;14.30;99.90;;;;;;7368717;19;20025;-66
2023/07/23 04:31:15;;;;;;;21.85;16.30;;;14.30;99.90;;;;;;7364653;19;20030;-66
2023/07/23 04:33:41;;;;;;;23.95;15.25;;;14.30;99.90;;;;;;7369917;19;20027;-66
2023/07/23 04:36:08;;;;;;;25.02;17.00;;;14.30;99.90;;;;;;7368561;19;20346;-66
2023/07/23 04:38:35;;;;;;;27.77;17.15;;;14.30;99.90;;;;;;7370428;19;20366;-66
2023/07/23 04:41:02;;;;;;;23.30;16.70;;;14.30;99.90;;;;;;7366994;19;20022;-56
2023/07/23 04:43:28;;;;;;;23.38;17.77;;;14.30;99.90;;;;;;7371149;19;20045;-56
2023/07/23 04:45:54;;;;;;;24.65;17.98;;;14.40;99.90;;;;;;7363632;19;20015;-57
2023/07/23 04:48:21;;;;;;;21.42;16.55;;;14.40;99.90;;;;;;7368449;19;20387;-65
2023/07/23 04:51:02;;;;;;;23.70;18.50;;;14.40;99.90;;;;;;7365429;19;20011;-56
2023/07/23 04:53:28;;;;;;;21.23;17.90;;;14.40;99.90;;;;;;7367749;19;20029;-57
2023/07/23 04:55:55;;;;;;;23.13;15.63;;;14.40;99.90;;;;;;7367859;19;20773;-57
2023/07/23 04:58:23;;;;;;;20.98;17.55;;;14.40;99.90;;;;;;7371559;19;20020;-57
2023/07/23 05:00:50;;;;;;;24.80;17.48;;;14.40;99.90;;;;;;7368263;19;20019;-56
2023/07/23 05:03:16;;;;;;;23.80;18.50;;;14.40;99.90;;;;;;7367671;19;20029;-56
2023/07/23 05:05:46;;;;;;;23.33;18.92;;;14.40;99.90;;;;;;7368404;19;20018;-56
2023/07/23 05:08:12;;;;;;;25.27;18.27;;;14.40;99.90;;;;;;7367448;19;20015;-57
2023/07/23 05:10:39;;;;;;;21.67;17.30;;;14.40;99.90;;;;;;7364540;19;20018;-67
2023/07/23 05:13:06;;;;;;;17.50;15.55;;;14.50;99.90;;;;;;7369126;19;20596;-57
2023/07/23 05:15:33;;;;;;;23.17;17.85;;;14.50;99.90;;;;;;7367955;19;20018;-57
2023/07/23 05:18:00;;;;;;;32.00;21.42;;;14.50;99.90;;;;;;7364426;19;20055;-57
2023/07/23 05:20:27;;;;;;;23.90;18.02;;;14.50;99.90;;;;;;7367964;19;20018;-57
2023/07/23 05:22:55;;;;;;;24.25;17.85;;;14.60;99.90;;;;;;7370072;19;20529;-58
2023/07/23 05:25:21;;;;;;;20.23;17.15;;;14.60;99.90;;;;;;7366658;19;20034;-56
2023/07/23 05:27:51;;;;;;;25.17;18.55;;;14.60;99.90;;;;;;7370954;19;20019;-57
2023/07/23 05:30:18;;;;;;;27.85;18.25;;;14.60;99.90;;;;;;7363520;19;20022;-56
2023/07/23 05:32:44;;;;;;;25.63;19.73;;;14.70;99.90;;;;;;7368585;19;20481;-57
2023/07/23 05:35:12;;;;;;;21.33;17.75;;;14.70;99.90;;;;;;7368179;19;20437;-57
2023/07/23 05:37:39;;;;;;;22.02;17.25;;;14.70;99.90;;;;;;7371336;19;20025;-56
2023/07/23 05:40:06;;;;;;;21.67;17.27;;;14.80;99.90;;;;;;7368558;19;20538;-61
2023/07/23 05:42:32;;;;;;;21.27;17.48;;;14.80;99.90;;;;;;7370443;19;20562;-58
2023/07/23 05:44:59;;;;;;;19.17;16.98;;;14.90;99.90;;;;;;7368588;19;20014;-56
2023/07/23 05:47:27;;;;;;;17.67;13.07;;;15.10;99.90;;;;;;7374402;19;20018;-57
2023/07/23 05:49:53;;;;;;;20.55;14.85;;;15.10;99.90;;;;;;7372001;19;20041;-57
2023/07/23 05:52:20;;;;;;;22.10;15.77;;;15.10;99.90;;;;;;7366352;19;20021;-62
2023/07/23 05:54:46;;;;;;;20.30;15.20;;;15.30;99.90;;;;;;7375592;19;20027;-64
2023/07/23 05:57:13;;;;;;;15.70;13.70;;;15.30;99.90;;;;;;7373383;19;20018;-64
2023/07/23 05:59:39;;;;;;;16.42;14.45;;;15.40;99.90;;;;;;7371331;19;20518;-64
2023/07/23 06:02:05;;;;;;;16.67;13.93;;;15.40;99.90;;;;;;7369103;19;20010;-64
2023/07/23 06:04:32;;;;;;;16.55;13.35;;;15.50;99.90;;;;;;7366624;19;20021;-58
2023/07/23 06:06:58;;;;;;;19.05;14.82;;;15.60;99.90;;;;;;7368464;19;20438;-58
2023/07/23 06:09:26;;;;;;;15.48;13.65;;;15.60;99.90;;;;;;7366359;19;20022;-58
2023/07/23 06:11:53;;;;;;;16.83;14.15;;;15.70;99.90;;;;;;7367832;19;20044;-58
2023/07/23 06:14:19;;;;;;;16.45;14.70;;;15.60;99.90;;;;;;7365885;19;20007;-58
2023/07/23 06:16:46;;;;;;;16.45;14.10;;;15.60;99.90;;;;;;7367237;19;20859;-58
2023/07/23 06:19:12;;;;;;;19.17;14.70;;;15.70;99.90;;;;;;7364336;19;20113;-58
2023/07/23 06:21:39;;;;;;;18.27;14.25;;;15.70;99.90;;;;;;7370343;19;20060;-58
2023/07/23 06:24:05;;;;;;;164.50;147.95;;;15.70;99.90;;;;;;7376960;19;20022;-59
2023/07/23 06:26:32;;;;;;;53.28;46.40;;;15.80;99.90;;;;;;7373675;19;20055;-58
2023/07/23 06:28:58;;;;;;;65.28;58.45;;;15.80;99.90;;;;;;7367859;19;20022;-58
2023/07/23 06:31:24;;;;;;;20.60;17.90;;;15.90;99.90;;;;;;7370255;19;20018;-58
2023/07/23 06:33:50;;;;;;;18.08;15.38;;;16.00;99.90;;;;;;7372270;19;20069;-58
2023/07/23 06:36:17;;;;;;;19.38;17.33;;;16.10;99.90;;;;;;7373116;19;20015;-59
2023/07/23 06:38:43;;;;;;;16.98;13.95;;;16.10;99.90;;;;;;7381024;19;20028;-63
2023/07/23 06:41:09;;;;;;;22.35;18.55;;;16.10;99.90;;;;;;7377522;19;20751;-63
2023/07/23 06:43:36;;;;;;;18.17;15.10;;;16.20;99.90;;;;;;7374899;19;20090;-58
2023/07/23 06:46:02;;;;;;;17.33;15.50;;;16.20;99.90;;;;;;7375090;19;20010;-58
2023/07/23 06:48:28;;;;;;;66.60;60.10;;;16.10;99.90;;;;;;7373710;19;21105;-57
2023/07/23 06:50:56;;;;;;;124.47;112.15;;;16.20;99.90;;;;;;7376182;19;20026;-58
2023/07/23 06:53:22;;;;;;;49.97;44.78;;;16.10;99.90;;;;;;7374978;19;20018;-58
2023/07/23 06:56:08;;;;;;;18.92;16.17;;;16.10;99.90;;;;;;7375120;19;20039;-58
2023/07/23 06:58:38;;;;;;;34.03;30.33;;;16.10;99.90;;;;;;7372260;19;20025;-58
2023/07/23 07:01:05;;;;;;;27.95;17.67;;;16.10;99.90;;;;;;7373100;19;20018;-58
2023/07/23 07:03:32;;;;;;;17.75;14.77;;;16.10;99.90;;;;;;7379234;19;20055;-63
2023/07/23 07:06:00;;;;;;;22.08;14.70;;;16.10;99.90;;;;;;7376149;19;20022;-63
2023/07/23 07:08:27;;;;;;;18.20;15.95;;;16.10;99.90;;;;;;7376892;19;20346;-63
2023/07/23 07:11:01;;;;;;;17.02;14.95;;;16.10;99.90;;;;;;7374627;19;20018;-63
2023/07/23 07:13:28;;;;;;;19.83;15.60;;;16.20;99.90;;;;;;7372295;19;20646;-63
2023/07/23 07:15:55;;;;;;;19.17;13.40;;;16.10;99.90;;;;;;7379164;19;20022;-63
2023/07/23 07:18:22;;;;;;;17.05;15.15;;;16.10;99.90;;;;;;7377594;19;20014;-63
2023/07/23 07:20:58;;;;;;;19.85;14.85;;;16.10;99.90;;;;;;7376238;19;20030;-63
2023/07/23 07:23:32;;;;;;;19.80;13.73;;;16.10;99.90;;;;;;7375174;19;20473;-63
2023/07/23 07:26:00;;;;;;;17.48;13.80;;;16.10;99.90;;;;;;7378823;19;20021;-66
2023/07/23 07:28:29;;;;;;;75.65;67.60;;;16.00;99.90;;;;;;7376974;19;20018;-59
2023/07/23 07:31:00;;;;;;;95.78;85.30;;;16.20;99.90;;;;;;7371669;19;20054;-58
2023/07/23 07:33:28;;;;;;;27.20;21.25;;;16.20;99.90;;;;;;7371086;19;20356;-68
2023/07/23 07:35:58;;;;;;;45.30;36.78;;;16.10;99.90;;;;;;7383233;19;20134;-64
2023/07/23 07:38:27;;;;;;;47.77;41.37;;;16.10;99.90;;;;;;7382787;19;20006;-63
2023/07/23 07:40:53;;;;;;;18.58;14.43;;;16.20;99.90;;;;;;7380665;19;20750;-64
2023/07/23 07:43:20;;;;;;;22.08;15.10;;;16.10;99.90;;;;;;7381164;19;20591;-65
2023/07/23 07:45:53;;;;;;;22.10;16.25;;;16.00;99.90;;;;;;7381125;19;20027;-63
2023/07/23 07:48:20;;;;;;;25.88;16.98;;;16.00;99.90;;;;;;7381534;19;20555;-64
2023/07/23 07:50:48;;;;;;;23.67;16.25;;;16.00;99.90;;;;;;7382767;19;20051;-63
2023/07/23 07:53:15;;;;;;;47.72;42.67;;;16.00;99.90;;;;;;7377626;19;20019;-63
2023/07/23 07:55:42;;;;;;;43.90;35.72;;;15.90;99.90;;;;;;7387060;19;20018;-63
2023/07/23 07:58:14;;;;;;;45.70;38.08;;;15.90;99.90;;;;;;7384049;19;20018;-63
2023/07/23 08:00:42;;;;;;;21.88;17.75;;;15.80;99.90;;;;;;7384545;19;20014;-63
2023/07/23 08:03:09;;;;;;;26.15;19.45;;;15.80;99.90;;;;;;7387377;19;20086;-63
2023/07/23 08:05:37;;;;;;;21.33;14.20;;;15.70;99.90;;;;;;7385940;19;20089;-63
2023/07/23 08:08:05;;;;;;;23.83;18.27;;;15.80;99.90;;;;;;7386763;19;20018;-63
2023/07/23 08:10:34;;;;;;;19.20;13.82;;;15.70;99.90;;;;;;7386613;19;20015;-63
2023/07/23 08:13:01;;;;;;;19.70;14.77;;;15.70;99.90;;;;;;7381616;19;20572;-58
2023/07/23 08:15:34;;;;;;;21.27;15.18;;;15.70;99.90;;;;;;7375730;19;21028;-58
2023/07/23 08:18:00;;;;;;;22.33;15.00;;;15.80;99.90;;;;;;7375963;19;20018;-59
2023/07/23 08:20:28;;;;;;;21.48;15.23;;;15.90;99.90;;;;;;7376775;19;20348;-63
2023/07/23 08:22:55;;;;;;;17.40;13.63;;;16.00;99.90;;;;;;7376471;19;20018;-64
2023/07/23 08:25:22;;;;;;;20.92;14.30;;;16.00;99.90;;;;;;7386044;19;20014;-63
2023/07/23 08:27:51;;;;;;;19.05;13.18;;;16.20;99.90;;;;;;7382425;19;20014;-64
2023/07/23 08:30:19;;;;;;;19.23;13.48;;;16.20;99.90;;;;;;7381746;19;20018;-64
2023/07/23 08:32:46;;;;;;;18.13;12.63;;;16.30;99.90;;;;;;7383170;19;20410;-63
2023/07/23 08:35:12;;;;;;;16.55;12.77;;;16.20;99.90;;;;;;7381042;19;20029;-63
2023/07/23 08:37:39;;;;;;;24.75;19.75;;;16.20;99.90;;;;;;7384275;19;20015;-66
2023/07/23 08:40:06;;;;;;;52.83;46.88;;;16.30;99.90;;;;;;7376841;19;20022;-59
2023/07/23 08:42:56;;;;;;;56.03;49.83;;;16.40;99.90;;;;;;7375609;19;20022;-59
2023/07/23 08:45:48;;;;;;;25.63;22.42;;;16.30;99.90;;;;;;7375249;19;20473;-63
2023/07/23 08:48:17;;;;;;;19.95;17.13;;;16.20;99.90;;;;;;7382166;19;20035;-63
2023/07/23 08:50:50;;;;;;;15.55;13.52;;;16.20;99.90;;;;;;7377970;19;20081;-64
2023/07/23 08:53:18;;;;;;;16.10;13.10;;;16.00;99.90;;;;;;7375880;19;20094;-68
2023/07/23 08:55:46;;;;;;;20.02;12.52;;;15.90;99.90;;;;;;7372139;19;20014;-65
2023/07/23 08:58:17;;;;;;;14.68;11.80;;;15.90;99.90;;;;;;7373455;19;20022;-65
2023/07/23 09:00:45;;;;;;;20.50;12.20;;;15.90;99.90;;;;;;7367476;19;20014;-65
2023/07/23 09:03:12;;;;;;;14.43;10.85;;;15.80;99.90;;;;;;7372336;19;20102;-65
2023/07/23 09:05:39;;;;;;;16.85;12.93;;;15.70;99.90;;;;;;7371291;19;20014;-65
2023/07/23 09:08:06;;;;;;;16.25;11.90;;;15.70;99.90;;;;;;7374120;19;20022;-65
2023/07/23 09:10:32;;;;;;;14.48;10.65;;;15.80;99.90;;;;;;7369472;19;20015;-57
2023/07/23 09:12:59;;;;;;;18.65;12.90;;;15.80;99.90;;;;;;7370815;19;20014;-58
2023/07/23 09:15:26;;;;;;;14.63;11.85;;;15.80;99.90;;;;;;7366766;19;20481;-57
2023/07/23 09:17:52;;;;;;;13.63;10.88;;;15.80;99.90;;;;;;7370503;19;20022;-57
2023/07/23 09:20:18;;;;;;;16.80;11.63;;;15.90;99.90;;;;;;7370309;19;20047;-57
2023/07/23 09:22:46;;;;;;;13.35;10.68;;;15.90;99.90;;;;;;7370692;19;20360;-57
2023/07/23 09:25:18;;;;;;;13.40;10.77;;;15.90;99.90;;;;;;7367680;19;20014;-57
2023/07/23 09:27:44;;;;;;;;;;;15.90;99.90;;;;;;7366887;19;20030;-57
2023/07/23 09:30:19;;;;;;;17.75;10.35;;;15.80;99.90;;;;;;7368256;19;20263;-58
2023/07/23 09:32:56;;;;;;;16.38;11.23;;;15.70;99.90;;;;;;7363801;19;21344;-57
2023/07/23 09:35:24;;;;;;;13.65;10.88;;;15.70;99.90;;;;;;7369067;19;20025;-57
2023/07/23 09:37:58;;;;;;;14.13;9.73;;;15.70;99.90;;;;;;7371001;19;20453;-57
2023/07/23 09:40:35;;;;;;;13.45;10.60;;;15.70;99.90;;;;;;7367554;19;20509;-57
2023/07/23 09:43:02;;;;;;;14.15;9.80;;;15.70;99.90;;;;;;7367880;19;20031;-56
2023/07/23 09:45:36;;;;;;;13.68;10.15;;;15.70;99.90;;;;;;7370017;19;21229;-57
2023/07/23 09:48:02;;;;;;;13.65;10.65;;;15.80;99.90;;;;;;7372603;19;20074;-57
2023/07/23 09:50:30;;;;;;;13.45;11.13;;;15.80;99.90;;;;;;7368726;19;20510;-57
2023/07/23 09:52:57;;;;;;;13.77;9.95;;;15.90;99.90;;;;;;7369960;19;20097;-57
2023/07/23 09:55:23;;;;;;;14.15;11.13;;;16.00;99.90;;;;;;7374486;19;20473;-65
2023/07/23 09:57:51;;;;;;;14.32;10.45;;;16.10;99.90;;;;;;7373879;19;20524;-57
2023/07/23 10:00:18;;;;;;;11.70;9.45;;;16.10;99.90;;;;;;7378964;19;20803;-66
2023/07/23 10:02:48;;;;;;;10.85;9.10;;;16.10;99.90;;;;;;7379046;19;20355;-65
2023/07/23 10:05:17;;;;;;;9.50;8.45;;;16.20;99.90;;;;;;7375925;19;21775;-65
2023/07/23 10:07:46;;;;;;;11.13;8.73;;;16.20;99.90;;;;;;7377337;19;20014;-66
2023/07/23 10:10:15;;;;;;;11.18;8.75;;;16.20;99.90;;;;;;7377918;19;20075;-65
2023/07/23 10:12:42;;;;;;;11.75;8.55;;;16.30;99.90;;;;;;7379266;19;20011;-65
2023/07/23 10:15:09;;;;;;;9.73;7.63;;;16.30;99.90;;;;;;7374460;19;20019;-69
2023/07/23 10:17:58;;;;;;;10.25;8.00;;;16.30;99.90;;;;;;7376750;19;20014;-65
2023/07/23 10:20:28;;;;;;;7.97;7.18;;;16.40;99.90;;;;;;7370732;19;20018;-66
2023/07/23 10:22:56;;;;;;;9.85;7.35;;;16.30;99.90;;;;;;7378679;19;20599;-65
2023/07/23 10:25:25;;;;;;;10.30;7.32;;;16.30;99.90;;;;;;7374220;19;20026;-64
2023/07/23 10:27:57;;;;;;;10.35;8.50;;;16.30;99.90;;;;;;7377977;19;20018;-65
2023/07/23 10:30:25;;;;;;;10.65;8.75;;;16.40;99.90;;;;;;7368470;19;20015;-66
2023/07/23 10:33:10;;;;;;;9.63;8.00;;;16.40;99.90;;;;;;7377105;19;20029;-65
2023/07/23 10:35:52;;;;;;;11.23;8.43;;;16.50;99.90;;;;;;7378428;19;20383;-66
2023/07/23 10:38:27;;;;;;;10.50;8.00;;;16.40;99.90;;;;;;7376853;19;20022;-65
2023/07/23 10:40:54;;;;;;;9.43;8.43;;;16.50;99.90;;;;;;7377039;19;20018;-65
2023/07/23 10:43:21;;;;;;;12.20;8.35;;;16.50;99.90;;;;;;7375421;19;20423;-65
2023/07/23 10:46:02;;;;;;;9.75;8.73;;;16.50;99.90;;;;;;7372751;19;20698;-65
2023/07/23 10:48:50;;;;;;;11.85;8.68;;;16.50;99.90;;;;;;7371994;19;20385;-65
2023/07/23 10:51:19;;;;;;;9.35;7.97;;;16.50;99.90;;;;;;7370470;19;20557;-65
2023/07/23 10:54:01;;;;;;;12.90;8.98;;;16.50;99.90;;;;;;7375206;19;20022;-65
2023/07/23 10:56:31;;;;;;;11.88;9.25;;;16.50;99.90;;;;;;7373528;19;20596;-66
2023/07/23 10:59:08;;;;;;;11.43;8.90;;;16.50;99.90;;;;;;7375273;19;20021;-65
2023/07/23 11:01:39;;;;;;;97.10;86.97;;;16.50;99.90;;;;;;7379896;19;20015;-65
2023/07/23 11:04:14;;;;;;;97.25;87.40;;;16.60;99.90;;;;;;7382332;19;20022;-65
2023/07/23 11:06:54;;;;;;;27.40;24.45;;;16.60;99.90;;;;;;7378521;19;20105;-65
2023/07/23 11:09:26;;;;;;;26.10;23.35;;;16.60;99.90;;;;;;7367915;19;20494;-64
2023/07/23 11:11:53;;;;;;;15.00;13.30;;;16.60;99.90;;;;;;7377471;19;20448;-64
2023/07/23 11:14:25;;;;;;;10.23;8.50;;;16.70;99.90;;;;;;7377647;19;20050;-67
2023/07/23 11:16:54;;;;;;;19.75;14.93;;;16.70;99.90;;;;;;7375194;19;20022;-65
2023/07/23 11:19:22;;;;;;;10.75;8.88;;;16.60;99.90;;;;;;7375767;19;20014;-65
2023/07/23 11:21:52;;;;;;;14.05;10.85;;;16.60;99.90;;;;;;7379597;19;20035;-65
2023/07/23 11:24:20;;;;;;;11.43;10.23;;;16.60;99.90;;;;;;7376002;19;20461;-65
2023/07/23 11:26:47;;;;;;;13.95;11.43;;;16.70;99.90;;;;;;7371440;19;20692;-64
2023/07/23 11:29:14;;;;;;;14.65;12.32;;;16.70;99.90;;;;;;7378562;19;20018;-65
2023/07/23 11:31:41;;;;;;;11.98;10.05;;;16.70;99.90;;;;;;7375378;19;20022;-64
2023/07/23 11:34:08;;;;;;;10.60;9.27;;;16.80;99.90;;;;;;7377070;19;20452;-64
2023/07/23 11:36:36;;;;;;;11.02;9.10;;;16.80;99.90;;;;;;7375155;19;20943;-65
2023/07/23 11:39:03;;;;;;;11.00;8.93;;;16.80;99.90;;;;;;7378214;19;20366;-65
2023/07/23 11:41:32;;;;;;;12.30;9.27;;;16.80;99.90;;;;;;7377636;19;20018;-65
2023/07/23 11:44:03;;;;;;;12.38;8.70;;;16.90;99.90;;;;;;7375225;19;20029;-59
2023/07/23 11:46:34;;;;;;;11.82;9.23;;;16.90;99.90;;;;;;7370640;19;20370;-65
2023/07/23 11:49:02;;;;;;;10.77;8.48;;;16.90;99.90;;;;;;7373613;19;20018;-64
2023/07/23 11:51:33;;;;;;;63.00;56.53;;;17.00;99.90;;;;;;7375627;19;20450;-64
2023/07/23 11:54:08;;;;;;;30.10;25.90;;;17.10;99.90;;;;;;7375967;19;20010;-64
2023/07/23 11:56:53;;;;;;;19.15;17.20;;;17.00;99.90;;;;;;7373191;19;20011;-65
2023/07/23 11:59:19;;;;;;;13.13;9.75;;;17.00;99.90;;;;;;7371673;19;20018;-64
2023/07/23 12:01:46;;;;;;;12.05;9.98;;;17.00;99.90;;;;;;7372371;19;20018;-68
2023/07/23 12:04:12;;;;;;;17.30;13.50;;;17.00;99.90;;;;;;7372713;19;20022;-64
2023/07/23 12:06:39;;;;;;;16.80;11.93;;;17.00;99.90;;;;;;7368584;19;20454;-65
2023/07/23 12:09:08;;;;;;;14.30;11.45;;;17.10;99.90;;;;;;7369830;19;20458;-59
2023/07/23 12:11:43;;;;;;;12.18;9.25;;;17.00;99.90;;;;;;7367136;19;20501;-60
2023/07/23 12:14:14;;;;;;;18.13;16.17;;;17.00;99.90;;;;;;7376883;19;20025;-65
2023/07/23 12:16:46;;;;;;;;;;;17.10;99.90;;;;;;7375370;19;20018;-65
2023/07/23 12:19:15;;;;;;;20.92;18.23;;;17.20;99.90;;;;;;7374270;19;19935;-59
2023/07/23 12:21:44;;;;;;;23.75;21.17;;;17.20;99.90;;;;;;7370176;19;20069;-65
2023/07/23 12:24:20;;;;;;;23.02;20.67;;;17.30;99.90;;;;;;7378851;19;20053;-65
2023/07/23 12:26:52;;;;;;;15.93;14.18;;;17.30;99.90;;;;;;7374858;19;20026;-64
2023/07/23 12:29:20;;;;;;;12.73;9.23;;;17.30;99.90;;;;;;7379916;19;20078;-64
2023/07/23 12:31:48;;;;;;;9.80;7.55;;;17.30;99.90;;;;;;7376287;19;20010;-65
2023/07/23 12:34:15;;;;;;;9.38;7.35;;;17.30;99.90;;;;;;7372423;19;20016;-57